createdAt,value
2023-04-30T00:00:19.534Z,0.66
2023-04-30T00:01:19.549Z,0.28
2023-04-30T00:02:19.645Z,0.31
2023-04-30T00:03:19.693Z,0.39
2023-04-30T00:04:19.683Z,0.45
2023-04-30T00:05:19.678Z,0.43
2023-04-30T00:06:19.747Z,0.68
2023-04-30T00:07:19.723Z,0.44
2023-04-30T00:08:19.758Z,0.30
2023-04-30T00:09:19.803Z,0.47
2023-04-30T00:10:19.828Z,0.51
2023-04-30T00:11:19.855Z,0.31
2023-04-30T00:12:19.848Z,0.42
2023-04-30T00:13:19.846Z,0.37
2023-04-30T00:14:19.857Z,0.48
2023-04-30T00:15:19.863Z,0.43
2023-04-30T00:16:19.881Z,0.37
2023-04-30T00:17:19.856Z,0.73
2023-04-30T00:18:19.861Z,0.47
2023-04-30T00:19:19.865Z,0.23
2023-04-30T00:20:19.862Z,0.52
2023-04-30T00:21:19.853Z,0.35
2023-04-30T00:22:19.873Z,0.29
2023-04-30T00:23:19.858Z,0.34
2023-04-30T00:24:19.867Z,0.19
2023-04-30T00:25:19.878Z,0.33
2023-04-30T00:26:19.939Z,0.34
2023-04-30T00:27:19.886Z,0.20
2023-04-30T00:28:19.895Z,0.57
2023-04-30T00:29:19.884Z,0.30
2023-04-30T00:30:19.908Z,0.44
2023-04-30T00:31:19.920Z,0.23
2023-04-30T00:32:19.926Z,0.54
2023-04-30T00:33:19.904Z,0.57
2023-04-30T00:34:19.920Z,0.40
2023-04-30T00:35:19.942Z,0.52
2023-04-30T00:36:20.001Z,0.53
2023-04-30T00:37:20.039Z,0.42
2023-04-30T00:38:20.032Z,0.40
2023-04-30T00:39:20.057Z,0.43
2023-04-30T00:40:20.104Z,0.30
2023-04-30T00:41:20.140Z,0.50
2023-04-30T00:42:20.152Z,0.53
2023-04-30T00:43:20.184Z,0.55
2023-04-30T00:44:20.220Z,0.39
2023-04-30T00:45:20.249Z,0.52
2023-04-30T00:46:20.358Z,0.62
2023-04-30T00:47:20.353Z,0.48
2023-04-30T00:48:20.342Z,0.40
2023-04-30T00:49:20.404Z,0.29
2023-04-30T00:50:20.425Z,0.35
2023-04-30T00:51:20.461Z,0.29
2023-04-30T00:52:20.480Z,0.44
2023-04-30T00:53:20.509Z,0.50
2023-04-30T00:54:20.547Z,0.70
2023-04-30T00:55:20.600Z,0.46
2023-04-30T00:56:20.618Z,0.24
2023-04-30T00:57:20.635Z,0.40
2023-04-30T00:58:20.623Z,0.63
2023-04-30T00:59:20.632Z,0.26
2023-04-30T01:00:20.625Z,0.39
2023-04-30T01:01:20.715Z,0.53
2023-04-30T01:02:20.727Z,0.48
2023-04-30T01:03:20.682Z,0.40
2023-04-30T01:04:20.621Z,0.48
2023-04-30T01:05:20.614Z,0.31
2023-04-30T01:06:20.717Z,0.47
2023-04-30T01:07:20.635Z,0.31
2023-04-30T01:08:20.628Z,0.32
2023-04-30T01:09:20.631Z,0.51
2023-04-30T01:10:20.636Z,0.60
2023-04-30T01:11:20.643Z,0.34
2023-04-30T01:12:20.636Z,0.71
2023-04-30T01:13:20.623Z,0.29
2023-04-30T01:14:20.648Z,0.46
2023-04-30T01:15:20.634Z,0.49
2023-04-30T01:16:20.745Z,0.36
2023-04-30T01:17:20.628Z,0.40
2023-04-30T01:18:20.701Z,0.50
2023-04-30T01:19:20.627Z,0.47
2023-04-30T01:20:20.633Z,0.47
2023-04-30T01:21:20.645Z,0.36
2023-04-30T01:22:20.629Z,0.40
2023-04-30T01:23:20.620Z,0.47
2023-04-30T01:24:20.621Z,0.44
2023-04-30T01:25:20.614Z,0.34
2023-04-30T01:26:20.623Z,0.45
2023-04-30T01:27:20.618Z,0.37
2023-04-30T01:28:20.615Z,0.41
2023-04-30T01:29:20.704Z,0.36
2023-04-30T01:30:20.704Z,0.27
2023-04-30T01:31:20.753Z,0.53
2023-04-30T01:32:20.774Z,0.51
2023-04-30T01:33:20.790Z,0.43
2023-04-30T01:34:20.798Z,0.59
2023-04-30T01:35:20.843Z,0.21
2023-04-30T01:36:20.876Z,0.37
2023-04-30T01:37:20.898Z,0.46
2023-04-30T01:38:20.910Z,0.34
2023-04-30T01:39:20.934Z,0.52
2023-04-30T01:40:20.960Z,0.56
2023-04-30T01:41:20.987Z,0.41
2023-04-30T01:42:21.021Z,0.45
2023-04-30T01:43:21.038Z,0.41
2023-04-30T01:44:21.091Z,0.53
2023-04-30T01:45:21.094Z,0.53
2023-04-30T01:46:21.158Z,0.31
2023-04-30T01:47:21.169Z,0.49
2023-04-30T01:48:21.171Z,0.48
2023-04-30T01:49:21.227Z,0.29
2023-04-30T01:50:21.207Z,0.57
2023-04-30T01:51:21.209Z,0.38
2023-04-30T01:52:21.205Z,0.38
2023-04-30T01:53:21.194Z,0.44
2023-04-30T01:54:21.198Z,0.36
2023-04-30T01:55:21.199Z,0.43
2023-04-30T01:56:21.213Z,0.23
2023-04-30T01:57:21.235Z,0.56
2023-04-30T01:58:21.210Z,0.50
2023-04-30T01:59:21.202Z,0.56
2023-04-30T02:00:21.202Z,0.40
2023-04-30T02:01:21.252Z,0.28
2023-04-30T02:02:21.243Z,0.72
2023-04-30T02:03:21.246Z,0.50
2023-04-30T02:04:21.231Z,0.56
2023-04-30T02:05:21.225Z,0.42
2023-04-30T02:06:21.269Z,0.49
2023-04-30T02:07:21.222Z,0.35
2023-04-30T02:08:21.229Z,0.37
2023-04-30T02:09:21.218Z,0.38
2023-04-30T02:10:21.237Z,0.69
2023-04-30T02:11:21.234Z,0.26
2023-04-30T02:12:21.229Z,0.32
2023-04-30T02:13:21.250Z,0.43
2023-04-30T02:14:21.240Z,0.44
2023-04-30T02:15:21.248Z,0.49
2023-04-30T02:16:21.347Z,0.47
2023-04-30T02:17:21.253Z,0.52
2023-04-30T02:18:21.287Z,0.50
2023-04-30T02:19:21.272Z,0.81
2023-04-30T02:20:21.268Z,0.43
2023-04-30T02:21:21.303Z,0.47
2023-04-30T02:22:21.272Z,0.41
2023-04-30T02:23:21.305Z,0.42
2023-04-30T02:24:21.303Z,0.58
2023-04-30T02:25:21.321Z,0.54
2023-04-30T02:26:21.340Z,0.40
2023-04-30T02:27:21.337Z,0.47
2023-04-30T02:28:21.340Z,0.31
2023-04-30T02:29:21.359Z,0.39
2023-04-30T02:30:21.370Z,0.31
2023-04-30T02:31:21.378Z,0.39
2023-04-30T02:32:21.440Z,0.45
2023-04-30T02:33:21.357Z,0.43
2023-04-30T02:34:21.386Z,0.42
2023-04-30T02:35:21.369Z,0.30
2023-04-30T02:36:21.412Z,0.41
2023-04-30T02:37:21.407Z,0.52
2023-04-30T02:38:21.410Z,0.59
2023-04-30T02:39:21.415Z,0.49
2023-04-30T02:40:21.420Z,0.46
2023-04-30T02:41:21.422Z,0.42
2023-04-30T02:42:21.426Z,0.50
2023-04-30T02:43:21.423Z,0.39
2023-04-30T02:44:21.421Z,0.17
2023-04-30T02:45:21.425Z,0.35
2023-04-30T02:46:21.515Z,0.42
2023-04-30T02:47:21.516Z,0.28
2023-04-30T02:48:21.492Z,0.46
2023-04-30T02:49:21.545Z,0.33
2023-04-30T02:50:21.569Z,0.22
2023-04-30T02:51:21.607Z,0.55
2023-04-30T02:52:21.634Z,0.37
2023-04-30T02:53:21.687Z,0.32
2023-04-30T02:54:21.779Z,0.46
2023-04-30T02:55:21.785Z,0.25
2023-04-30T02:56:21.855Z,0.38
2023-04-30T02:57:21.918Z,0.31
2023-04-30T02:58:21.950Z,0.55
2023-04-30T02:59:22.033Z,0.68
2023-04-30T03:00:22.093Z,0.60
2023-04-30T03:01:22.210Z,0.52
2023-04-30T03:02:22.271Z,0.52
2023-04-30T03:03:22.357Z,0.47
2023-04-30T03:04:22.386Z,0.56
2023-04-30T03:05:22.436Z,0.81
2023-04-30T03:06:22.565Z,0.62
2023-04-30T03:07:22.566Z,0.80
2023-04-30T03:08:22.650Z,0.45
2023-04-30T03:09:22.701Z,0.55
2023-04-30T03:10:22.809Z,0.36
2023-04-30T03:11:22.849Z,0.73
2023-04-30T03:12:22.891Z,0.59
2023-04-30T03:13:22.959Z,0.57
2023-04-30T03:14:22.984Z,0.57
2023-04-30T03:15:23.041Z,0.46
2023-04-30T03:16:23.151Z,0.74
2023-04-30T03:17:23.201Z,0.69
2023-04-30T03:18:23.164Z,0.64
2023-04-30T03:19:23.164Z,0.60
2023-04-30T03:20:23.180Z,0.53
2023-04-30T03:21:23.183Z,0.59
2023-04-30T03:22:23.194Z,0.65
2023-04-30T03:23:23.206Z,0.75
2023-04-30T03:24:23.198Z,0.50
2023-04-30T03:25:23.215Z,0.59
2023-04-30T03:26:23.235Z,0.97
2023-04-30T03:27:23.234Z,0.81
2023-04-30T03:28:23.274Z,0.86
2023-04-30T03:29:23.257Z,0.71
2023-04-30T03:30:23.274Z,0.58
2023-04-30T03:31:23.311Z,0.70
2023-04-30T03:32:23.335Z,0.61
2023-04-30T03:33:23.326Z,0.56
2023-04-30T03:34:23.331Z,0.61
2023-04-30T03:35:23.319Z,0.69
2023-04-30T03:36:23.340Z,0.58
2023-04-30T03:37:23.337Z,0.61
2023-04-30T03:38:23.351Z,0.77
2023-04-30T03:39:23.353Z,0.51
2023-04-30T03:40:23.350Z,0.52
2023-04-30T03:41:23.383Z,0.67
2023-04-30T03:42:23.386Z,0.42
2023-04-30T03:43:23.384Z,0.90
2023-04-30T03:44:23.417Z,0.63
2023-04-30T03:45:23.425Z,0.85
2023-04-30T03:46:23.502Z,0.65
2023-04-30T03:47:23.430Z,0.68
2023-04-30T03:48:23.446Z,0.45
2023-04-30T03:49:23.464Z,0.82
2023-04-30T03:50:23.463Z,0.83
2023-04-30T03:51:23.504Z,0.91
2023-04-30T03:52:23.526Z,0.73
2023-04-30T03:53:23.546Z,0.75
2023-04-30T03:54:23.582Z,0.64
2023-04-30T03:55:23.622Z,0.73
2023-04-30T03:56:23.656Z,0.78
2023-04-30T03:57:23.683Z,0.85
2023-04-30T03:58:23.698Z,0.72
2023-04-30T03:59:23.733Z,0.81
2023-04-30T04:00:23.761Z,0.80
2023-04-30T04:01:23.799Z,0.70
2023-04-30T04:02:23.886Z,0.60
2023-04-30T04:03:23.877Z,0.97
2023-04-30T04:04:23.974Z,0.90
2023-04-30T04:05:23.933Z,0.58
2023-04-30T04:06:24.013Z,0.69
2023-04-30T04:07:24.015Z,0.75
2023-04-30T04:08:24.038Z,0.67
2023-04-30T04:09:24.092Z,0.54
2023-04-30T04:10:24.124Z,0.94
2023-04-30T04:11:24.186Z,0.79
2023-04-30T04:12:24.205Z,0.76
2023-04-30T04:13:24.247Z,0.94
2023-04-30T04:14:24.294Z,0.60
2023-04-30T04:15:24.328Z,0.84
2023-04-30T04:16:24.411Z,0.65
2023-04-30T04:17:24.506Z,0.91
2023-04-30T04:18:24.476Z,0.73
2023-04-30T04:19:24.518Z,1.09
2023-04-30T04:20:24.558Z,0.83
2023-04-30T04:21:24.605Z,0.64
2023-04-30T04:22:24.666Z,0.86
2023-04-30T04:23:24.706Z,0.91
2023-04-30T04:24:24.744Z,0.54
2023-04-30T04:25:24.788Z,0.95
2023-04-30T04:26:24.856Z,0.96
2023-04-30T04:27:24.892Z,0.98
2023-04-30T04:28:24.918Z,0.87
2023-04-30T04:29:24.915Z,1.21
2023-04-30T04:30:24.922Z,1.04
2023-04-30T04:31:24.944Z,0.95
2023-04-30T04:32:24.986Z,0.80
2023-04-30T04:33:24.962Z,1.10
2023-04-30T04:34:24.986Z,0.84
2023-04-30T04:35:24.999Z,0.92
2023-04-30T04:36:24.986Z,0.68
2023-04-30T04:37:25.002Z,0.80
2023-04-30T04:38:25.008Z,0.97
2023-04-30T04:39:25.016Z,1.03
2023-04-30T04:40:25.028Z,0.97
2023-04-30T04:41:25.055Z,0.80
2023-04-30T04:42:25.086Z,1.08
2023-04-30T04:43:25.148Z,1.33
2023-04-30T04:44:25.201Z,1.06
2023-04-30T04:45:25.260Z,1.72
2023-04-30T04:46:25.372Z,1.49
2023-04-30T04:47:25.384Z,1.47
2023-04-30T04:48:25.429Z,1.45
2023-04-30T04:49:25.492Z,1.44
2023-04-30T04:50:25.547Z,1.42
2023-04-30T04:51:25.614Z,1.40
2023-04-30T04:52:25.665Z,1.10
2023-04-30T04:53:25.738Z,1.30
2023-04-30T04:54:25.787Z,1.22
2023-04-30T04:55:25.851Z,1.16
2023-04-30T04:56:25.940Z,1.40
2023-04-30T04:57:25.972Z,1.17
2023-04-30T04:58:26.032Z,1.09
2023-04-30T04:59:26.106Z,1.26
2023-04-30T05:00:26.177Z,1.46
2023-04-30T05:01:26.314Z,1.33
2023-04-30T05:02:26.344Z,1.23
2023-04-30T05:03:26.413Z,1.09
2023-04-30T05:04:26.415Z,1.16
2023-04-30T05:05:26.480Z,1.38
2023-04-30T05:06:26.619Z,1.35
2023-04-30T05:07:26.605Z,1.32
2023-04-30T05:08:26.677Z,1.13
2023-04-30T05:09:26.717Z,1.52
2023-04-30T05:10:26.799Z,1.27
2023-04-30T05:11:26.858Z,1.11
2023-04-30T05:12:26.920Z,1.10
2023-04-30T05:13:26.990Z,0.85
2023-04-30T05:14:27.042Z,0.93
2023-04-30T05:15:27.092Z,1.20
2023-04-30T05:16:27.210Z,0.95
2023-04-30T05:17:27.266Z,1.01
2023-04-30T05:18:27.318Z,1.00
2023-04-30T05:19:27.356Z,1.37
2023-04-30T05:20:27.405Z,1.26
2023-04-30T05:21:27.458Z,1.35
2023-04-30T05:22:27.515Z,1.00
2023-04-30T05:23:27.588Z,0.94
2023-04-30T05:24:27.676Z,1.29
2023-04-30T05:25:27.725Z,1.33
2023-04-30T05:26:27.812Z,1.10
2023-04-30T05:27:27.856Z,1.67
2023-04-30T05:28:27.913Z,1.37
2023-04-30T05:29:27.995Z,1.16
2023-04-30T05:30:28.054Z,1.63
2023-04-30T05:31:28.134Z,1.44
2023-04-30T05:32:28.199Z,1.40
2023-04-30T05:33:28.241Z,1.43
2023-04-30T05:34:28.295Z,1.57
2023-04-30T05:35:28.381Z,1.50
2023-04-30T05:36:28.451Z,1.40
2023-04-30T05:37:28.514Z,1.27
2023-04-30T05:38:28.580Z,1.57
2023-04-30T05:39:28.638Z,1.10
2023-04-30T05:40:28.730Z,1.36
2023-04-30T05:41:28.785Z,1.71
2023-04-30T05:42:28.843Z,1.22
2023-04-30T05:43:28.948Z,1.37
2023-04-30T05:44:28.974Z,1.49
2023-04-30T05:45:29.100Z,1.30
2023-04-30T05:46:29.333Z,1.39
2023-04-30T05:47:29.168Z,1.19
2023-04-30T05:48:29.234Z,1.23
2023-04-30T05:49:29.299Z,1.53
2023-04-30T05:50:29.356Z,0.88
2023-04-30T05:51:29.411Z,1.25
2023-04-30T05:52:29.466Z,1.38
2023-04-30T05:53:29.534Z,1.52
2023-04-30T05:54:29.608Z,1.44
2023-04-30T05:55:29.685Z,1.33
2023-04-30T05:56:29.761Z,1.29
2023-04-30T05:57:29.809Z,1.23
2023-04-30T05:58:29.885Z,1.37
2023-04-30T05:59:29.954Z,1.59
2023-04-30T06:00:30.025Z,1.47
2023-04-30T06:01:30.096Z,1.79
2023-04-30T06:02:30.232Z,1.54
2023-04-30T06:03:30.250Z,1.68
2023-04-30T06:04:30.321Z,1.52
2023-04-30T06:05:30.464Z,1.42
2023-04-30T06:06:30.474Z,1.79
2023-04-30T06:07:30.504Z,1.62
2023-04-30T06:08:30.561Z,1.27
2023-04-30T06:09:30.637Z,1.66
2023-04-30T06:10:30.702Z,1.54
2023-04-30T06:11:30.770Z,1.66
2023-04-30T06:12:30.829Z,1.36
2023-04-30T06:13:30.884Z,1.63
2023-04-30T06:14:30.952Z,1.70
2023-04-30T06:15:31.018Z,1.54
2023-04-30T06:16:31.105Z,1.35
2023-04-30T06:17:31.195Z,1.58
2023-04-30T06:18:31.222Z,1.52
2023-04-30T06:19:31.281Z,1.20
2023-04-30T06:20:31.372Z,1.24
2023-04-30T06:21:31.416Z,1.38
2023-04-30T06:22:31.481Z,1.31
2023-04-30T06:23:31.551Z,1.30
2023-04-30T06:24:31.610Z,1.22
2023-04-30T06:25:31.687Z,1.39
2023-04-30T06:26:31.752Z,1.40
2023-04-30T06:27:31.814Z,1.48
2023-04-30T06:28:31.872Z,1.13
2023-04-30T06:29:31.931Z,1.16
2023-04-30T06:30:32.000Z,1.40
2023-04-30T06:31:32.143Z,1.28
2023-04-30T06:32:32.169Z,1.27
2023-04-30T06:33:32.191Z,1.28
2023-04-30T06:34:32.235Z,0.80
2023-04-30T06:35:32.312Z,1.20
2023-04-30T06:36:32.369Z,1.07
2023-04-30T06:37:33.419Z,0.92
2023-04-30T06:38:32.464Z,1.18
2023-04-30T06:39:32.532Z,1.17
2023-04-30T06:40:32.595Z,1.02
2023-04-30T06:41:32.649Z,1.07
2023-04-30T06:42:32.698Z,1.22
2023-04-30T06:43:32.762Z,1.23
2023-04-30T06:44:32.822Z,1.30
2023-04-30T06:45:32.880Z,1.15
2023-04-30T06:46:32.974Z,1.18
2023-04-30T06:47:33.072Z,1.07
2023-04-30T06:48:33.061Z,1.22
2023-04-30T06:49:33.135Z,1.37
2023-04-30T06:50:33.141Z,0.80
2023-04-30T06:51:33.162Z,1.30
2023-04-30T06:52:33.157Z,1.04
2023-04-30T06:53:33.154Z,1.43
2023-04-30T06:54:33.180Z,1.20
2023-04-30T06:55:33.201Z,1.16
2023-04-30T06:56:33.191Z,1.08
2023-04-30T06:57:33.202Z,1.05
2023-04-30T06:58:33.224Z,1.17
2023-04-30T06:59:33.236Z,0.98
2023-04-30T07:00:33.227Z,1.23
2023-04-30T07:01:33.256Z,1.16
2023-04-30T07:02:33.390Z,0.89
2023-04-30T07:03:33.386Z,0.97
2023-04-30T07:04:33.273Z,0.93
2023-04-30T07:05:33.313Z,1.06
2023-04-30T07:06:33.413Z,1.05
2023-04-30T07:07:33.417Z,0.93
2023-04-30T07:08:33.467Z,0.82
2023-04-30T07:09:33.509Z,0.75
2023-04-30T07:10:33.564Z,0.83
2023-04-30T07:11:33.619Z,0.76
2023-04-30T07:12:33.612Z,1.10
2023-04-30T07:13:33.620Z,0.95
2023-04-30T07:14:33.623Z,0.77
2023-04-30T07:15:33.664Z,1.17
2023-04-30T07:16:33.901Z,1.18
2023-04-30T07:17:33.690Z,0.52
2023-04-30T07:18:33.671Z,0.87
2023-04-30T07:19:33.690Z,1.27
2023-04-30T07:20:33.705Z,0.81
2023-04-30T07:21:33.709Z,1.20
2023-04-30T07:22:33.727Z,0.82
2023-04-30T07:23:33.737Z,0.90
2023-04-30T07:24:33.742Z,0.99
2023-04-30T07:25:33.815Z,0.97
2023-04-30T07:26:33.850Z,0.98
2023-04-30T07:27:33.879Z,1.15
2023-04-30T07:28:33.928Z,1.43
2023-04-30T07:29:33.975Z,0.78
2023-04-30T07:30:34.055Z,0.92
2023-04-30T07:31:34.091Z,1.11
2023-04-30T07:32:34.152Z,1.25
2023-04-30T07:33:34.186Z,0.98
2023-04-30T07:34:34.239Z,1.19
2023-04-30T07:35:34.264Z,0.96
2023-04-30T07:36:34.315Z,0.83
2023-04-30T07:37:36.053Z,1.03
2023-04-30T07:38:34.412Z,1.20
2023-04-30T07:39:34.474Z,0.81
2023-04-30T07:40:36.608Z,0.89
2023-04-30T07:41:34.568Z,0.88
2023-04-30T07:42:34.610Z,0.92
2023-04-30T07:43:34.650Z,1.26
2023-04-30T07:44:34.740Z,1.19
2023-04-30T07:45:34.761Z,0.72
2023-04-30T07:46:34.851Z,0.81
2023-04-30T07:47:34.870Z,1.24
2023-04-30T07:48:34.904Z,1.12
2023-04-30T07:49:34.972Z,0.83
2023-04-30T07:50:35.024Z,1.10
2023-04-30T07:51:35.059Z,0.54
2023-04-30T07:52:35.112Z,0.89
2023-04-30T07:53:35.141Z,0.82
2023-04-30T07:54:35.187Z,0.87
2023-04-30T07:55:35.233Z,0.81
2023-04-30T07:56:35.280Z,0.88
2023-04-30T07:57:35.349Z,1.02
2023-04-30T07:58:35.375Z,1.02
2023-04-30T07:59:35.442Z,1.06
2023-04-30T08:00:35.487Z,0.98
2023-04-30T08:01:35.534Z,1.05
2023-04-30T08:02:35.759Z,0.83
2023-04-30T08:03:35.678Z,1.10
2023-04-30T08:04:35.746Z,0.94
2023-04-30T08:05:35.694Z,0.96
2023-04-30T08:06:35.768Z,0.97
2023-04-30T08:07:35.783Z,0.90
2023-04-30T08:08:35.821Z,1.03
2023-04-30T08:09:35.869Z,1.06
2023-04-30T08:10:35.917Z,1.31
2023-04-30T08:11:35.949Z,1.00
2023-04-30T08:12:36.000Z,1.21
2023-04-30T08:13:36.024Z,1.28
2023-04-30T08:14:36.070Z,1.21
2023-04-30T08:15:36.128Z,0.94
2023-04-30T08:16:36.175Z,0.75
2023-04-30T08:17:36.196Z,0.94
2023-04-30T08:18:36.200Z,1.19
2023-04-30T08:19:36.250Z,0.94
2023-04-30T08:20:38.524Z,0.99
2023-04-30T08:21:36.332Z,1.07
2023-04-30T08:22:36.378Z,0.97
2023-04-30T08:23:36.390Z,0.88
2023-04-30T08:24:36.442Z,0.89
2023-04-30T08:25:36.472Z,1.38
2023-04-30T08:26:36.499Z,0.89
2023-04-30T08:27:36.547Z,0.83
2023-04-30T08:28:36.571Z,1.07
2023-04-30T08:29:36.602Z,1.27
2023-04-30T08:30:36.620Z,1.04
2023-04-30T08:31:36.678Z,0.81
2023-04-30T08:32:36.731Z,0.90
2023-04-30T08:33:36.712Z,1.05
2023-04-30T08:34:36.733Z,0.99
2023-04-30T08:35:36.763Z,0.79
2023-04-30T08:36:36.783Z,0.98
2023-04-30T08:37:36.794Z,1.12
2023-04-30T08:38:36.833Z,0.90
2023-04-30T08:39:36.836Z,0.96
2023-04-30T08:40:50.465Z,1.01
2023-04-30T08:41:37.865Z,0.93
2023-04-30T08:42:36.882Z,0.64
2023-04-30T08:43:36.876Z,0.96
2023-04-30T08:44:36.871Z,0.84
2023-04-30T08:45:36.860Z,0.98
2023-04-30T08:46:36.933Z,0.78
2023-04-30T08:47:36.917Z,0.64
2023-04-30T08:48:36.867Z,0.58
2023-04-30T08:49:36.864Z,0.65
2023-04-30T08:50:36.885Z,0.54
2023-04-30T08:51:36.886Z,1.05
2023-04-30T08:52:36.903Z,0.75
2023-04-30T08:53:36.906Z,0.73
2023-04-30T08:54:36.904Z,0.80
2023-04-30T08:55:36.924Z,0.72
2023-04-30T08:56:36.956Z,0.65
2023-04-30T08:57:36.947Z,0.81
2023-04-30T08:58:36.960Z,0.65
2023-04-30T08:59:36.964Z,0.78
2023-04-30T09:00:36.979Z,0.95
2023-04-30T09:01:36.996Z,1.02
2023-04-30T09:02:37.038Z,0.81
2023-04-30T09:03:37.067Z,0.68
2023-04-30T09:04:37.014Z,0.80
2023-04-30T09:05:37.041Z,0.80
2023-04-30T09:06:37.075Z,1.18
2023-04-30T09:07:37.738Z,0.81
2023-04-30T09:08:37.050Z,0.93
2023-04-30T09:09:37.072Z,0.66
2023-04-30T09:10:37.077Z,1.04
2023-04-30T09:11:37.135Z,0.66
2023-04-30T09:12:37.181Z,0.80
2023-04-30T09:13:37.225Z,0.93
2023-04-30T09:14:37.271Z,0.84
2023-04-30T09:15:37.426Z,0.75
2023-04-30T09:16:37.372Z,0.76
2023-04-30T09:17:37.442Z,0.91
2023-04-30T09:18:37.469Z,1.10
2023-04-30T09:19:37.515Z,0.99
2023-04-30T09:20:37.569Z,0.62
2023-04-30T09:21:37.615Z,0.63
2023-04-30T09:22:37.655Z,0.79
2023-04-30T09:23:37.673Z,0.67
2023-04-30T09:24:37.715Z,0.69
2023-04-30T09:25:37.759Z,0.69
2023-04-30T09:26:37.775Z,0.75
2023-04-30T09:27:37.905Z,0.75
2023-04-30T09:28:37.842Z,0.79
2023-04-30T09:29:37.861Z,1.01
2023-04-30T09:30:37.893Z,0.63
2023-04-30T09:31:38.070Z,0.73
2023-04-30T09:32:38.086Z,0.72
2023-04-30T09:33:38.069Z,0.70
2023-04-30T09:34:38.088Z,0.60
2023-04-30T09:35:38.112Z,0.82
2023-04-30T09:36:38.113Z,0.78
2023-04-30T09:37:38.161Z,0.70
2023-04-30T09:38:38.194Z,0.87
2023-04-30T09:39:38.297Z,0.92
2023-04-30T09:40:38.413Z,0.55
2023-04-30T09:41:38.509Z,0.69
2023-04-30T09:42:38.625Z,0.79
2023-04-30T09:43:38.734Z,0.87
2023-04-30T09:44:38.743Z,0.56
2023-04-30T09:45:38.719Z,0.62
2023-04-30T09:46:38.768Z,0.70
2023-04-30T09:47:38.766Z,0.80
2023-04-30T09:48:38.800Z,0.63
2023-04-30T09:49:38.742Z,0.67
2023-04-30T09:50:39.214Z,0.67
2023-04-30T09:51:38.777Z,0.68
2023-04-30T09:52:38.764Z,0.90
2023-04-30T09:53:38.768Z,0.69
2023-04-30T09:54:38.744Z,0.78
2023-04-30T09:55:38.748Z,0.63
2023-04-30T09:56:38.753Z,0.54
2023-04-30T09:57:38.773Z,0.77
2023-04-30T09:58:38.830Z,0.81
2023-04-30T09:59:38.887Z,0.67
2023-04-30T10:00:38.964Z,0.74
2023-04-30T10:01:40.950Z,1.08
2023-04-30T10:02:39.126Z,0.67
2023-04-30T10:03:39.218Z,0.86
2023-04-30T10:04:39.245Z,0.93
2023-04-30T10:05:39.310Z,0.47
2023-04-30T10:06:39.355Z,0.74
2023-04-30T10:07:39.313Z,0.62
2023-04-30T10:08:39.301Z,0.77
2023-04-30T10:09:39.282Z,0.64
2023-04-30T10:10:39.312Z,0.82
2023-04-30T10:11:39.311Z,0.71
2023-04-30T10:12:39.303Z,0.62
2023-04-30T10:13:39.309Z,0.53
2023-04-30T10:14:39.320Z,0.80
2023-04-30T10:15:39.393Z,0.94
2023-04-30T10:16:39.440Z,0.93
2023-04-30T10:17:39.479Z,0.80
2023-04-30T10:18:39.544Z,0.81
2023-04-30T10:19:39.579Z,0.95
2023-04-30T10:20:39.633Z,0.78
2023-04-30T10:21:39.685Z,0.95
2023-04-30T10:22:39.733Z,0.80
2023-04-30T10:23:39.792Z,0.70
2023-04-30T10:24:39.841Z,0.62
2023-04-30T10:25:39.891Z,0.64
2023-04-30T10:26:39.950Z,0.86
2023-04-30T10:27:40.006Z,0.48
2023-04-30T10:28:40.052Z,0.76
2023-04-30T10:29:40.089Z,0.76
2023-04-30T10:30:40.139Z,0.58
2023-04-30T10:31:40.218Z,0.75
2023-04-30T10:32:40.275Z,0.75
2023-04-30T10:33:40.281Z,0.91
2023-04-30T10:34:40.324Z,0.71
2023-04-30T10:35:40.369Z,0.85
2023-04-30T10:36:40.396Z,0.62
2023-04-30T10:37:40.444Z,0.70
2023-04-30T10:38:40.481Z,0.73
2023-04-30T10:39:40.525Z,0.58
2023-04-30T10:40:40.571Z,0.65
2023-04-30T10:41:40.622Z,0.59
2023-04-30T10:42:40.651Z,0.88
2023-04-30T10:43:40.699Z,0.77
2023-04-30T10:44:40.754Z,0.64
2023-04-30T10:45:40.792Z,0.80
2023-04-30T10:46:40.902Z,0.63
2023-04-30T10:47:40.864Z,0.78
2023-04-30T10:48:40.897Z,0.56
2023-04-30T10:49:41.009Z,0.50
2023-04-30T10:50:41.575Z,0.77
2023-04-30T10:51:41.055Z,0.63
2023-04-30T10:52:41.105Z,0.68
2023-04-30T10:53:41.138Z,0.80
2023-04-30T10:54:41.181Z,0.57
2023-04-30T10:55:41.211Z,0.68
2023-04-30T10:56:41.257Z,0.51
2023-04-30T10:57:41.304Z,0.62
2023-04-30T10:58:41.395Z,0.55
2023-04-30T10:59:41.368Z,0.50
2023-04-30T11:00:43.125Z,0.46
2023-04-30T11:01:41.475Z,0.77
2023-04-30T11:02:41.563Z,0.88
2023-04-30T11:03:41.523Z,0.77
2023-04-30T11:04:41.601Z,0.62
2023-04-30T11:05:41.599Z,0.66
2023-04-30T11:06:43.355Z,0.82
2023-04-30T11:07:41.633Z,0.64
2023-04-30T11:08:41.628Z,0.83
2023-04-30T11:09:41.648Z,0.75
2023-04-30T11:10:41.612Z,0.65
2023-04-30T11:11:41.600Z,1.13
2023-04-30T11:12:41.616Z,0.72
2023-04-30T11:13:41.604Z,0.63
2023-04-30T11:14:41.632Z,1.06
2023-04-30T11:15:41.720Z,0.79
2023-04-30T11:16:41.650Z,0.70
2023-04-30T11:17:41.678Z,0.88
2023-04-30T11:18:41.580Z,0.69
2023-04-30T11:19:41.575Z,0.72
2023-04-30T11:20:41.586Z,0.76
2023-04-30T11:21:41.596Z,0.64
2023-04-30T11:22:41.598Z,0.60
2023-04-30T11:23:42.235Z,0.75
2023-04-30T11:24:41.576Z,0.56
2023-04-30T11:25:41.585Z,0.70
2023-04-30T11:26:41.587Z,0.77
2023-04-30T11:27:41.584Z,0.80
2023-04-30T11:28:41.579Z,0.49
2023-04-30T11:29:41.573Z,0.72
2023-04-30T11:30:41.564Z,0.84
2023-04-30T11:31:41.630Z,0.69
2023-04-30T11:32:41.625Z,0.75
2023-04-30T11:33:41.561Z,0.59
2023-04-30T11:34:41.551Z,1.07
2023-04-30T11:35:41.549Z,0.70
2023-04-30T11:36:41.547Z,0.62
2023-04-30T11:37:41.553Z,0.78
2023-04-30T11:38:41.537Z,0.79
2023-04-30T11:39:41.538Z,0.56
2023-04-30T11:40:41.530Z,0.67
2023-04-30T11:41:41.508Z,0.52
2023-04-30T11:42:44.115Z,0.71
2023-04-30T11:43:41.495Z,0.81
2023-04-30T11:44:41.503Z,0.87
2023-04-30T11:45:41.476Z,0.51
2023-04-30T11:46:41.491Z,1.02
2023-04-30T11:47:41.584Z,0.56
2023-04-30T11:48:41.451Z,0.46
2023-04-30T11:49:41.434Z,0.61
2023-04-30T11:50:41.428Z,0.59
2023-04-30T11:51:41.537Z,0.61
2023-04-30T11:52:41.414Z,0.76
2023-04-30T11:53:41.412Z,0.73
2023-04-30T11:54:41.386Z,0.67
2023-04-30T11:55:41.390Z,0.74
2023-04-30T11:56:41.593Z,0.87
2023-04-30T11:57:41.380Z,0.69
2023-04-30T11:58:41.356Z,0.62
2023-04-30T11:59:41.361Z,0.70
2023-04-30T12:00:41.353Z,0.57
2023-04-30T12:01:41.362Z,0.70
2023-04-30T12:02:41.523Z,0.76
2023-04-30T12:03:41.471Z,0.48
2023-04-30T12:04:41.321Z,0.41
2023-04-30T12:05:41.321Z,0.63
2023-04-30T12:06:41.348Z,0.67
2023-04-30T12:07:41.297Z,0.79
2023-04-30T12:08:41.289Z,0.55
2023-04-30T12:09:41.279Z,0.70
2023-04-30T12:10:41.293Z,0.46
2023-04-30T12:11:41.282Z,0.66
2023-04-30T12:12:41.282Z,0.71
2023-04-30T12:13:41.297Z,0.61
2023-04-30T12:14:41.260Z,0.90
2023-04-30T12:15:41.289Z,0.62
2023-04-30T12:16:41.210Z,0.74
2023-04-30T12:17:41.401Z,0.50
2023-04-30T12:18:41.185Z,0.53
2023-04-30T12:19:41.175Z,0.62
2023-04-30T12:20:41.175Z,0.53
2023-04-30T12:21:41.164Z,0.63
2023-04-30T12:22:41.157Z,0.63
2023-04-30T12:23:41.166Z,0.45
2023-04-30T12:24:41.181Z,0.65
2023-04-30T12:25:41.159Z,0.87
2023-04-30T12:26:41.158Z,0.70
2023-04-30T12:27:41.158Z,0.61
2023-04-30T12:28:41.146Z,0.82
2023-04-30T12:29:41.144Z,0.49
2023-04-30T12:30:41.119Z,0.67
2023-04-30T12:31:41.155Z,0.73
2023-04-30T12:32:41.171Z,0.51
2023-04-30T12:33:41.095Z,0.48
2023-04-30T12:34:41.075Z,0.50
2023-04-30T12:35:41.084Z,0.81
2023-04-30T12:36:41.074Z,0.66
2023-04-30T12:37:41.098Z,0.63
2023-04-30T12:38:41.124Z,0.61
2023-04-30T12:39:41.176Z,0.57
2023-04-30T12:40:41.170Z,0.62
2023-04-30T12:41:41.176Z,0.60
2023-04-30T12:42:41.160Z,0.50
2023-04-30T12:43:41.156Z,0.45
2023-04-30T12:44:41.152Z,0.73
2023-04-30T12:45:41.162Z,0.78
2023-04-30T12:46:41.224Z,0.58
2023-04-30T12:47:41.147Z,0.63
2023-04-30T12:48:41.118Z,0.58
2023-04-30T12:49:41.112Z,0.59
2023-04-30T12:50:41.100Z,0.81
2023-04-30T12:51:41.120Z,0.62
2023-04-30T12:52:41.086Z,0.48
2023-04-30T12:53:41.088Z,0.47
2023-04-30T12:54:41.096Z,0.71
2023-04-30T12:55:41.079Z,0.65
2023-04-30T12:56:41.070Z,0.71
2023-04-30T12:57:41.055Z,0.62
2023-04-30T12:58:41.053Z,0.52
2023-04-30T12:59:41.040Z,0.57
2023-04-30T13:00:41.060Z,0.72
2023-04-30T13:01:41.126Z,0.60
2023-04-30T13:02:41.201Z,0.71
2023-04-30T13:03:41.213Z,0.86
2023-04-30T13:04:41.129Z,0.61
2023-04-30T13:05:41.177Z,0.84
2023-04-30T13:06:41.275Z,0.78
2023-04-30T13:07:41.221Z,0.65
2023-04-30T13:08:53.922Z,0.68
2023-04-30T13:09:42.247Z,0.47
2023-04-30T13:10:41.228Z,0.54
2023-04-30T13:11:41.205Z,0.82
2023-04-30T13:12:41.201Z,0.72
2023-04-30T13:13:41.209Z,0.54
2023-04-30T13:14:41.169Z,0.51
2023-04-30T13:15:41.202Z,0.72
2023-04-30T13:16:41.205Z,0.69
2023-04-30T13:17:41.185Z,0.44
2023-04-30T13:18:41.132Z,0.56